Baker, NV (89311)

2:04 AM PST on February 10, 2016 (GMT -0800)
Hwy 488 | | Change Station
CLOSE
Current Station
Personal Weather Station
Location: Baker, NV
Elevation: 6437 ft
Nearby Weather Stations

Elev 6437 ft 39.01 °N, 114.20 °W | Updated 3 minutes ago

Mostly Cloudy
Mostly Cloudy
29.5 °F
Feels Like 25 °F
N
4.2
Wind Variable Wind from WSW

Today
High -- | Low -- °F
--% Chance of Precip.
Yesterday
High -- | Low -- °F
Precip. -- in
Pressure 30.52 in
Visibility 10.0 miles
Clouds Clear
Windchill 25 °F
Dew Point 13 °F
Humidity 49%
Rainfall 0.00 in
Snow Depth Not available.
6:34 AM 5:07 PM
Waxing Crescent, 4% visible
METAR KELY 100953Z AUTO 16017KT 10SM CLR M12/M16 A3042 RMK AO2 SLP333 T11221156
Pressure 30.52 in
Visibility 10.0 miles
Clouds Clear
Windchill 25 °F
Dew Point 13 °F
Humidity 49%
Rainfall 0.00 in
Snow Depth Not available.
6:34 AM 5:07 PM
Waxing Crescent, 4% visible
METAR KELY 100953Z AUTO 16017KT 10SM CLR M12/M16 A3042 RMK AO2 SLP333 T11221156

10-Day Weather Forecast

Almanac

Astronomy

Feb. 10, 2016 Rise Set
Actual Time
Civil Twilight
Nautical Twilight
Astronomical Twilight
Moon
Length of Visible Light
Length of Day
Tomorrow will be .
, % of the Moon is Illuminated

Today's Extremes

State Highs State Lows

Community

WunderPhotos

Upload Photos

1,891,828 photos uploaded!

WunderBlog® & News

Nearby

Air Quality

  Air Quality AQ Index Pollutant
Not available.

Snow Depth

Station Depth Elevation

Earthquake Activity

City Distance Mag. Time & Date
Minimum magnitude displayed is 2.5.

Coastal Water Temperatures

Place Temperature

Stations

Nearby Weather Stations

Station Location Temp. Windchill Dew Point Humidity Wind Precip. Elev Updated Type
                   

Watches & Warnings

There are currently no watches in effect.